Baden, Switzerland
Current Conditions -  °F | °C
As of 7:50 AM on Monday 24 Nov 2014 (Local Time) from LSZH Reporting Station
Light Fog Light Fog  
Wind Chill: 41°   Ceiling: 200
Heat Index: 41°   Visibility: 0.37mi
Dew Point: 41°   Wind: 2mph
Humidity: 100%   Direction: NA
Pressure: 30.18"   Gusts: NA
Location:  47.48°N, 8.31°E
Report Text: LSZH 240650Z VRB02KT 0600 R14/P2000N R16/P2000N R28/1400D R34/P2000D PRFG VV002 05/05 Q1022 TEMPO 1500
Loading
Personal Weather Stations






























Interactive Weather Map New forecast layout! Learn more

10-Day Weather Forecast

Advertisements
Track Severe Weather on mobile